Time;durP1;ratioP1;P1;durP2;ratioP2;P2;SDS_P1;SDS_P2;PMS_P1;PMS_P2;Temp;Humidity;BMP_temperature;BMP_pressure;BME280_temperature;BME280_humidity;BME280_pressure;Samples;Min_cycle;Max_cycle;Signal;HPM_P1;HPM_P2
2022/01/31 00:01:29;;;;;;;16.40;5.43;;;;;;;;;;5103347;28;20032;-79
2022/01/31 00:03:55;;;;;;;20.92;6.63;;;;;;;;;;5095082;27;20487;-79
2022/01/31 00:06:22;;;;;;;24.35;6.25;;;;;;;;;;5095438;28;20109;-79
2022/01/31 00:08:50;;;;;;;18.85;5.85;;;;;;;;;;5094574;28;20051;-79
2022/01/31 00:11:17;;;;;;;16.55;5.18;;;;;;;;;;5112945;27;20056;-78
2022/01/31 00:13:46;;;;;;;18.02;5.57;;;;;;;;;;5113468;27;20086;-78
2022/01/31 00:16:17;;;;;;;18.33;6.18;;;;;;;;;;5095047;27;20032;-78
2022/01/31 00:18:43;;;;;;;18.25;5.63;;;;;;;;;;5108313;27;20070;-78
2022/01/31 00:21:09;;;;;;;16.23;5.40;;;;;;;;;;5095852;27;20113;-79
2022/01/31 00:23:36;;;;;;;19.23;5.20;;;;;;;;;;5112712;27;20051;-79
2022/01/31 00:26:02;;;;;;;17.15;5.13;;;;;;;;;;5112734;27;20082;-79
2022/01/31 00:28:29;;;;;;;20.45;5.47;;;;;;;;;;5113587;27;20588;-79
2022/01/31 00:30:55;;;;;;;17.52;4.70;;;;;;;;;;5095057;27;20510;-78
2022/01/31 00:33:22;;;;;;;21.30;4.85;;;;;;;;;;5102154;27;20056;-79
2022/01/31 00:35:48;;;;;;;21.60;5.03;;;;;;;;;;5095194;28;20044;-79
2022/01/31 00:38:15;;;;;;;18.33;5.32;;;;;;;;;;5094852;27;20121;-79
2022/01/31 00:40:42;;;;;;;21.50;5.20;;;;;;;;;;5104856;27;20056;-78
2022/01/31 00:43:12;;;;;;;22.42;5.25;;;;;;;;;;5087746;27;20736;-79
2022/01/31 00:45:46;;;;;;;20.85;6.40;;;;;;;;;;5102588;28;20087;-78
2022/01/31 00:48:18;;;;;;;22.25;6.47;;;;;;;;;;5095527;27;20056;-78
2022/01/31 00:50:47;;;;;;;30.10;6.13;;;;;;;;;;5096456;28;20129;-79
2022/01/31 00:53:14;;;;;;;17.67;5.93;;;;;;;;;;5095407;27;20082;-79
2022/01/31 00:55:40;;;;;;;17.52;6.18;;;;;;;;;;5094819;28;20056;-79
2022/01/31 00:58:07;;;;;;;32.67;7.88;;;;;;;;;;5095320;27;20106;-80
2022/01/31 01:00:33;;;;;;;28.95;7.65;;;;;;;;;;5089901;28;20056;-78
2022/01/31 01:03:02;;;;;;;19.13;7.95;;;;;;;;;;5093998;27;20909;-79
2022/01/31 01:05:28;;;;;;;24.02;7.75;;;;;;;;;;5095942;27;20480;-80
2022/01/31 01:07:55;;;;;;;25.38;7.95;;;;;;;;;;5113532;27;20052;-79
2022/01/31 01:10:21;;;;;;;26.42;7.95;;;;;;;;;;5114913;27;20105;-80
2022/01/31 01:12:48;;;;;;;20.90;7.20;;;;;;;;;;5101259;27;20043;-80
2022/01/31 01:15:15;;;;;;;20.42;7.82;;;;;;;;;;5115449;27;20052;-80
2022/01/31 01:17:42;;;;;;;19.55;7.10;;;;;;;;;;5097217;28;20113;-80
2022/01/31 01:20:10;;;;;;;23.48;8.13;;;;;;;;;;5113447;27;20078;-80
2022/01/31 01:22:37;;;;;;;21.95;7.25;;;;;;;;;;5094691;28;20530;-80
2022/01/31 01:25:05;;;;;;;28.67;8.73;;;;;;;;;;5095299;28;20576;-80
2022/01/31 01:27:32;;;;;;;22.95;8.07;;;;;;;;;;5096266;27;20110;-80
2022/01/31 01:29:58;;;;;;;23.70;7.88;;;;;;;;;;5096171;28;20974;-80
2022/01/31 01:32:26;;;;;;;21.65;8.40;;;;;;;;;;5111961;27;20358;-79
2022/01/31 01:34:54;;;;;;;29.20;8.27;;;;;;;;;;5096725;28;20062;-80
2022/01/31 01:37:20;;;;;;;22.95;8.45;;;;;;;;;;5096290;27;20066;-80
2022/01/31 01:39:46;;;;;;;31.08;8.70;;;;;;;;;;5113795;27;20044;-81
2022/01/31 01:42:13;;;;;;;29.02;8.82;;;;;;;;;;5095250;28;20040;-81
2022/01/31 01:44:50;;;;;;;23.15;8.82;;;;;;;;;;5094466;27;20494;-80
2022/01/31 01:47:18;;;;;;;27.38;8.25;;;;;;;;;;5109905;27;20122;-80
2022/01/31 01:49:45;;;;;;;26.00;8.05;;;;;;;;;;5102323;27;20043;-81
2022/01/31 01:52:12;;;;;;;20.27;7.47;;;;;;;;;;5113356;27;20080;-80
2022/01/31 01:54:38;;;;;;;27.63;7.93;;;;;;;;;;5094154;27;20052;-80
2022/01/31 01:57:05;;;;;;;24.23;7.65;;;;;;;;;;5112664;27;20118;-80
2022/01/31 01:59:36;;;;;;;21.77;7.47;;;;;;;;;;5095032;27;20106;-80
2022/01/31 02:02:03;;;;;;;25.65;7.97;;;;;;;;;;5094006;28;20053;-80
2022/01/31 02:04:30;;;;;;;18.42;7.03;;;;;;;;;;5094117;27;20507;-80
2022/01/31 02:06:57;;;;;;;18.73;6.85;;;;;;;;;;5108559;27;20101;-79
2022/01/31 02:09:26;;;;;;;19.05;7.30;;;;;;;;;;5095166;27;20507;-79
2022/01/31 02:11:55;;;;;;;23.75;6.70;;;;;;;;;;5112025;27;20088;-81
2022/01/31 02:14:21;;;;;;;22.60;5.97;;;;;;;;;;5111833;27;20568;-80
2022/01/31 02:16:50;;;;;;;19.25;6.07;;;;;;;;;;5102589;27;20098;-80
2022/01/31 02:19:17;;;;;;;16.95;5.85;;;;;;;;;;5115415;27;20186;-80
2022/01/31 02:21:44;;;;;;;19.77;6.55;;;;;;;;;;5097020;27;20522;-80
2022/01/31 02:24:12;;;;;;;22.27;5.93;;;;;;;;;;5112883;27;20190;-81
2022/01/31 02:26:38;;;;;;;19.00;5.93;;;;;;;;;;5097544;27;20129;-80
2022/01/31 02:29:08;;;;;;;20.13;6.43;;;;;;;;;;5111488;27;20061;-80
2022/01/31 02:31:35;;;;;;;16.48;5.68;;;;;;;;;;5113539;27;20070;-80
2022/01/31 02:34:01;;;;;;;15.75;6.18;;;;;;;;;;5114407;27;20063;-81
2022/01/31 02:36:28;;;;;;;16.50;6.20;;;;;;;;;;5096769;28;20056;-80
2022/01/31 02:38:54;;;;;;;18.15;6.18;;;;;;;;;;5115424;27;20063;-80
2022/01/31 02:41:20;;;;;;;14.93;5.95;;;;;;;;;;5092147;28;20607;-80
2022/01/31 02:43:50;;;;;;;16.25;6.05;;;;;;;;;;5114993;27;20529;-80
2022/01/31 02:46:17;;;;;;;20.55;6.10;;;;;;;;;;5096581;28;20056;-80
2022/01/31 02:48:43;;;;;;;17.05;6.30;;;;;;;;;;5097324;27;20094;-80
2022/01/31 02:51:10;;;;;;;24.52;6.68;;;;;;;;;;5122472;27;20056;-80
2022/01/31 02:53:41;;;;;;;16.42;5.60;;;;;;;;;;5097638;27;20048;-80
2022/01/31 02:56:07;;;;;;;16.38;4.97;;;;;;;;;;5089783;28;20114;-80
2022/01/31 02:58:34;;;;;;;16.15;4.43;;;;;;;;;;5094387;28;20052;-81
2022/01/31 03:01:00;;;;;;;14.00;5.07;;;;;;;;;;5097903;27;20048;-81
2022/01/31 03:03:27;;;;;;;16.67;4.53;;;;;;;;;;5116202;27;20140;-81
2022/01/31 03:05:53;;;;;;;19.10;3.65;;;;;;;;;;5097301;27;20063;-81
2022/01/31 03:08:20;;;;;;;16.15;3.33;;;;;;;;;;5097147;28;20048;-81
2022/01/31 03:10:46;;;;;;;16.65;3.75;;;;;;;;;;5097535;27;20105;-81
2022/01/31 03:13:12;;;;;;;18.73;2.85;;;;;;;;;;5119949;27;20510;-81
2022/01/31 03:15:39;;;;;;;17.08;3.47;;;;;;;;;;5115133;27;20122;-81
2022/01/31 03:18:06;;;;;;;19.25;3.58;;;;;;;;;;5096813;27;20117;-81
2022/01/31 03:20:32;;;;;;;18.77;2.85;;;;;;;;;;5097375;28;20562;-80
2022/01/31 03:23:00;;;;;;;18.02;3.15;;;;;;;;;;5095548;27;20087;-81
2022/01/31 03:25:26;;;;;;;13.63;3.42;;;;;;;;;;5115289;27;20048;-81
2022/01/31 03:27:52;;;;;;;18.17;3.13;;;;;;;;;;5096366;27;20048;-81
2022/01/31 03:30:20;;;;;;;18.63;2.75;;;;;;;;;;5115265;27;20048;-80
2022/01/31 03:32:47;;;;;;;15.00;2.05;;;;;;;;;;5095654;27;20074;-81
2022/01/31 03:35:13;;;;;;;12.50;2.42;;;;;;;;;;5109636;27;20048;-81
2022/01/31 03:37:40;;;;;;;15.50;2.50;;;;;;;;;;5097226;28;20052;-81
2022/01/31 03:40:07;;;;;;;13.82;2.30;;;;;;;;;;5114824;27;20570;-81
2022/01/31 03:42:34;;;;;;;10.77;2.67;;;;;;;;;;5114714;27;20060;-81
2022/01/31 03:45:01;;;;;;;13.07;2.28;;;;;;;;;;5114596;27;20052;-81
2022/01/31 03:47:27;;;;;;;16.63;2.72;;;;;;;;;;5096476;28;20076;-81
2022/01/31 03:49:54;;;;;;;13.82;2.30;;;;;;;;;;5108690;27;20067;-81
2022/01/31 03:52:20;;;;;;;17.15;2.20;;;;;;;;;;5113452;27;20102;-81
2022/01/31 03:54:47;;;;;;;13.73;2.17;;;;;;;;;;5094386;28;20105;-81
2022/01/31 03:57:13;;;;;;;13.85;2.10;;;;;;;;;;5114477;27;20075;-82
2022/01/31 03:59:40;;;;;;;11.10;1.92;;;;;;;;;;5115085;27;20105;-81
2022/01/31 04:02:07;;;;;;;19.45;2.28;;;;;;;;;;5113782;27;20088;-81
2022/01/31 04:04:34;;;;;;;13.85;2.15;;;;;;;;;;5113291;27;20044;-81
2022/01/31 04:07:01;;;;;;;18.08;2.38;;;;;;;;;;5113459;27;20048;-81
2022/01/31 04:09:28;;;;;;;15.07;2.47;;;;;;;;;;5104454;27;20060;-81
2022/01/31 04:11:54;;;;;;;12.38;2.28;;;;;;;;;;5096403;28;20106;-81
2022/01/31 04:14:25;;;;;;;16.45;2.42;;;;;;;;;;5096093;27;20052;-81
2022/01/31 04:16:53;;;;;;;14.38;2.03;;;;;;;;;;5095899;28;20052;-81
2022/01/31 04:19:20;;;;;;;12.85;2.83;;;;;;;;;;5096179;27;20060;-81
2022/01/31 04:21:47;;;;;;;16.08;3.25;;;;;;;;;;5121978;27;20040;-80
2022/01/31 04:24:19;;;;;;;15.35;2.33;;;;;;;;;;5113092;27;20130;-81
2022/01/31 04:26:55;;;;;;;16.00;2.50;;;;;;;;;;5113601;27;20604;-81
2022/01/31 04:29:22;;;;;;;12.15;1.98;;;;;;;;;;5112242;27;20070;-81
2022/01/31 04:31:51;;;;;;;17.10;2.22;;;;;;;;;;5117361;27;20151;-81
2022/01/31 04:34:17;;;;;;;13.30;2.03;;;;;;;;;;5115297;27;20504;-81
2022/01/31 04:36:45;;;;;;;9.48;2.08;;;;;;;;;;5117917;27;20129;-81
2022/01/31 04:39:16;;;;;;;20.77;3.22;;;;;;;;;;5095231;27;20059;-81
2022/01/31 04:41:44;;;;;;;15.10;2.08;;;;;;;;;;5089539;28;20048;-81
2022/01/31 04:44:11;;;;;;;19.55;2.45;;;;;;;;;;5096864;27;20052;-81
2022/01/31 04:46:39;;;;;;;16.73;2.65;;;;;;;;;;5095110;28;20588;-81
2022/01/31 04:49:06;;;;;;;13.23;2.45;;;;;;;;;;5093911;28;20056;-81
2022/01/31 04:51:33;;;;;;;18.52;2.33;;;;;;;;;;5095681;27;20086;-81
2022/01/31 04:53:59;;;;;;;17.48;2.80;;;;;;;;;;5095238;28;20848;-80
2022/01/31 04:56:25;;;;;;;17.30;2.60;;;;;;;;;;5092696;27;20359;-81
2022/01/31 04:58:52;;;;;;;15.23;2.30;;;;;;;;;;5096204;28;20564;-80
2022/01/31 05:01:18;;;;;;;17.70;2.78;;;;;;;;;;5110729;27;20558;-81
2022/01/31 05:03:46;;;;;;;17.92;2.83;;;;;;;;;;5096163;28;20059;-81
2022/01/31 05:06:16;;;;;;;15.27;3.05;;;;;;;;;;5114172;27;20527;-80
2022/01/31 05:08:42;;;;;;;16.13;2.15;;;;;;;;;;5094850;27;20105;-80
2022/01/31 05:11:11;;;;;;;18.88;2.63;;;;;;;;;;5095661;28;20055;-81
2022/01/31 05:13:37;;;;;;;20.77;2.55;;;;;;;;;;5111443;27;20052;-81
2022/01/31 05:16:04;;;;;;;13.80;2.35;;;;;;;;;;5113668;27;20040;-81
2022/01/31 05:18:30;;;;;;;19.75;2.92;;;;;;;;;;5112549;27;20106;-80
2022/01/31 05:20:57;;;;;;;8.70;1.48;;;;;;;;;;5112642;27;20101;-80
2022/01/31 05:23:23;;;;;;;15.15;1.40;;;;;;;;;;5094559;27;20056;-80
2022/01/31 05:25:49;;;;;;;7.80;1.67;;;;;;;;;;5098914;27;20063;-81
2022/01/31 05:28:16;;;;;;;13.45;1.60;;;;;;;;;;5117109;27;20497;-80
2022/01/31 05:30:42;;;;;;;8.95;1.45;;;;;;;;;;5091001;27;20106;-81
2022/01/31 05:33:08;;;;;;;11.20;1.65;;;;;;;;;;5094208;28;20571;-80
2022/01/31 05:35:35;;;;;;;9.20;1.35;;;;;;;;;;5093178;27;20066;-81
2022/01/31 05:38:03;;;;;;;23.08;1.80;;;;;;;;;;5094714;28;20106;-80
2022/01/31 05:40:31;;;;;;;11.20;2.05;;;;;;;;;;5094764;27;20618;-81
2022/01/31 05:42:57;;;;;;;14.20;2.35;;;;;;;;;;5105739;27;20040;-80
2022/01/31 05:45:23;;;;;;;12.38;1.73;;;;;;;;;;5112290;27;20469;-80
2022/01/31 05:47:50;;;;;;;12.75;1.85;;;;;;;;;;5106147;27;20095;-79
2022/01/31 05:50:16;;;;;;;13.23;1.95;;;;;;;;;;5101755;27;20051;-80
2022/01/31 05:52:43;;;;;;;13.25;2.10;;;;;;;;;;5116956;27;20044;-80
2022/01/31 05:55:09;;;;;;;16.23;2.35;;;;;;;;;;5096038;28;20056;-80
2022/01/31 05:57:36;;;;;;;14.30;2.53;;;;;;;;;;5115205;27;20056;-80
2022/01/31 06:00:04;;;;;;;14.18;2.47;;;;;;;;;;5108291;27;20048;-80
2022/01/31 06:02:30;;;;;;;19.98;2.45;;;;;;;;;;5096840;28;20098;-80
2022/01/31 06:04:56;;;;;;;21.42;2.67;;;;;;;;;;5109630;27;20055;-80
2022/01/31 06:07:23;;;;;;;18.27;3.58;;;;;;;;;;5114879;27;20560;-79
2022/01/31 06:09:49;;;;;;;18.48;2.97;;;;;;;;;;5097809;27;20048;-80
2022/01/31 06:12:16;;;;;;;16.83;2.72;;;;;;;;;;5097547;28;20052;-80
2022/01/31 06:14:42;;;;;;;23.08;3.00;;;;;;;;;;5114606;27;20059;-80
2022/01/31 06:17:09;;;;;;;22.33;2.92;;;;;;;;;;5096235;28;20056;-80
2022/01/31 06:19:35;;;;;;;26.40;3.78;;;;;;;;;;5096220;28;20102;-80
2022/01/31 06:22:02;;;;;;;14.50;2.90;;;;;;;;;;5092705;27;20056;-79
2022/01/31 06:24:28;;;;;;;20.08;2.47;;;;;;;;;;5101353;28;20576;-80
2022/01/31 06:26:57;;;;;;;17.83;2.88;;;;;;;;;;5113942;27;20102;-80
2022/01/31 06:29:24;;;;;;;23.35;2.65;;;;;;;;;;5109288;27;20078;-79
2022/01/31 06:31:50;;;;;;;21.65;2.40;;;;;;;;;;5115033;27;20036;-80
2022/01/31 06:34:18;;;;;;;21.67;2.78;;;;;;;;;;5096226;28;20040;-80
2022/01/31 06:36:45;;;;;;;14.60;1.95;;;;;;;;;;5113960;27;20422;-80
2022/01/31 06:39:11;;;;;;;18.20;2.83;;;;;;;;;;5088587;28;20098;-80
2022/01/31 06:41:38;;;;;;;18.65;3.13;;;;;;;;;;5089006;28;20523;-79
2022/01/31 06:44:04;;;;;;;13.70;1.52;;;;;;;;;;5096029;28;20477;-80
2022/01/31 06:46:31;;;;;;;18.23;3.10;;;;;;;;;;5094962;28;20587;-80
2022/01/31 06:48:57;;;;;;;17.27;1.92;;;;;;;;;;5096112;27;20048;-80
2022/01/31 06:51:24;;;;;;;12.85;2.30;;;;;;;;;;5103778;28;20056;-80
2022/01/31 06:53:55;;;;;;;16.55;2.47;;;;;;;;;;5120826;27;20502;-80
2022/01/31 06:56:29;;;;;;;19.08;2.58;;;;;;;;;;5112036;27;20109;-80
2022/01/31 06:58:56;;;;;;;16.15;2.30;;;;;;;;;;5095855;28;20060;-79
2022/01/31 07:01:25;;;;;;;22.40;3.22;;;;;;;;;;5115191;27;20055;-80
2022/01/31 07:03:53;;;;;;;10.45;2.10;;;;;;;;;;5117489;27;20056;-80
2022/01/31 07:06:21;;;;;;;16.23;1.77;;;;;;;;;;5107629;27;20048;-80
2022/01/31 07:08:48;;;;;;;22.17;3.03;;;;;;;;;;5091106;28;20053;-80
2022/01/31 07:11:20;;;;;;;16.48;2.13;;;;;;;;;;5099025;27;20048;-80
2022/01/31 07:13:48;;;;;;;16.08;2.00;;;;;;;;;;5094106;28;20090;-80
2022/01/31 07:16:15;;;;;;;13.32;1.90;;;;;;;;;;5099155;28;20067;-80
2022/01/31 07:18:43;;;;;;;21.17;2.20;;;;;;;;;;5095773;27;20086;-80
2022/01/31 07:21:13;;;;;;;12.90;1.88;;;;;;;;;;5113781;27;20105;-80
2022/01/31 07:26:24;;;;;;;16.75;2.17;;;;;;;;;;5110930;27;20052;-79
2022/01/31 07:28:51;;;;;;;19.25;2.30;;;;;;;;;;5116992;27;20056;-80
2022/01/31 07:31:17;;;;;;;13.90;2.33;;;;;;;;;;5112610;27;20052;-81
2022/01/31 07:33:43;;;;;;;16.85;1.90;;;;;;;;;;5113323;27;20090;-80
2022/01/31 07:36:10;;;;;;;17.00;2.72;;;;;;;;;;5108522;27;20509;-79
2022/01/31 07:38:36;;;;;;;18.45;2.30;;;;;;;;;;5114264;27;20108;-80
2022/01/31 07:41:03;;;;;;;19.60;2.47;;;;;;;;;;5091421;27;20091;-81
2022/01/31 07:43:31;;;;;;;22.65;3.17;;;;;;;;;;5112161;27;20056;-81
2022/01/31 07:45:57;;;;;;;17.70;3.10;;;;;;;;;;5115284;27;20145;-81
2022/01/31 07:48:28;;;;;;;21.52;3.47;;;;;;;;;;5095857;27;20044;-81
2022/01/31 07:50:54;;;;;;;20.25;3.13;;;;;;;;;;5095198;28;20052;-81
2022/01/31 07:53:21;;;;;;;25.20;3.15;;;;;;;;;;5114459;27;20044;-80
2022/01/31 07:55:47;;;;;;;20.63;3.38;;;;;;;;;;5115005;27;20047;-81
2022/01/31 07:58:13;;;;;;;16.02;2.60;;;;;;;;;;5095088;28;20048;-81
2022/01/31 08:00:41;;;;;;;22.42;3.13;;;;;;;;;;5100764;27;20150;-81
2022/01/31 08:03:08;;;;;;;16.80;3.08;;;;;;;;;;5125454;27;20139;-81
2022/01/31 08:05:34;;;;;;;22.45;3.15;;;;;;;;;;5108376;27;20586;-81
2022/01/31 08:08:01;;;;;;;22.15;2.65;;;;;;;;;;5094779;27;20576;-80
2022/01/31 08:10:27;;;;;;;17.85;2.58;;;;;;;;;;5101021;28;20564;-80
2022/01/31 08:12:55;;;;;;;28.40;3.30;;;;;;;;;;5095309;27;20052;-81
2022/01/31 08:15:29;;;;;;;19.90;2.67;;;;;;;;;;5127748;27;20064;-81
2022/01/31 08:17:55;;;;;;;31.08;3.42;;;;;;;;;;5095080;27;20125;-80
2022/01/31 08:20:22;;;;;;;16.30;2.67;;;;;;;;;;5110835;27;20040;-80
2022/01/31 08:22:48;;;;;;;25.10;3.70;;;;;;;;;;5092340;28;20067;-80
2022/01/31 08:25:15;;;;;;;24.52;2.78;;;;;;;;;;5098741;27;20457;-80
2022/01/31 08:27:42;;;;;;;18.17;2.63;;;;;;;;;;5104926;27;21030;-81
2022/01/31 08:30:13;;;;;;;23.23;2.65;;;;;;;;;;5102571;27;20533;-80
2022/01/31 08:32:57;;;;;;;;;;;;;;;;;;5101517;28;20129;-81
2022/01/31 08:38:09;;;;;;;13.27;2.08;;;;;;;;;;5113932;27;20614;-81
2022/01/31 08:40:36;;;;;;;19.25;3.00;;;;;;;;;;5094515;28;20048;-81
2022/01/31 08:43:03;;;;;;;19.35;3.00;;;;;;;;;;5122521;27;20101;-80
2022/01/31 08:45:29;;;;;;;15.63;2.60;;;;;;;;;;5094332;28;20552;-80
2022/01/31 08:47:55;;;;;;;25.67;3.38;;;;;;;;;;5093761;28;20067;-80
2022/01/31 08:50:22;;;;;;;18.38;2.50;;;;;;;;;;5118185;27;20056;-81
2022/01/31 08:52:48;;;;;;;17.52;3.63;;;;;;;;;;5092729;28;20149;-81
2022/01/31 08:55:15;;;;;;;20.02;2.83;;;;;;;;;;5111958;28;20502;-80
2022/01/31 08:57:41;;;;;;;18.45;3.05;;;;;;;;;;5094091;28;20068;-81
2022/01/31 09:00:08;;;;;;;29.45;4.22;;;;;;;;;;5098689;27;20048;-79
2022/01/31 09:02:40;;;;;;;21.63;3.47;;;;;;;;;;5133410;27;20101;-80
2022/01/31 09:05:07;;;;;;;20.95;3.00;;;;;;;;;;5110302;28;20078;-81
2022/01/31 09:07:33;;;;;;;30.10;4.05;;;;;;;;;;5100810;27;20059;-81
2022/01/31 09:10:01;;;;;;;27.73;3.88;;;;;;;;;;5112007;27;20070;-80
2022/01/31 09:12:31;;;;;;;29.73;3.75;;;;;;;;;;5090431;28;20056;-81
2022/01/31 09:14:57;;;;;;;15.75;2.50;;;;;;;;;;5110804;28;20056;-81
2022/01/31 09:17:24;;;;;;;27.30;3.40;;;;;;;;;;5110392;28;20087;-81
2022/01/31 09:19:50;;;;;;;29.33;3.33;;;;;;;;;;5111967;27;20082;-80
2022/01/31 09:22:17;;;;;;;19.27;3.25;;;;;;;;;;5095527;28;20056;-79
2022/01/31 09:24:44;;;;;;;22.63;2.90;;;;;;;;;;5111063;27;20052;-81
2022/01/31 09:27:11;;;;;;;23.02;4.70;;;;;;;;;;5114488;27;20100;-81
2022/01/31 09:29:39;;;;;;;21.48;3.10;;;;;;;;;;5109323;27;20059;-81
2022/01/31 09:32:05;;;;;;;24.38;2.95;;;;;;;;;;5092353;28;20066;-79
2022/01/31 09:34:32;;;;;;;20.98;3.25;;;;;;;;;;5096022;27;20051;-81
2022/01/31 09:36:59;;;;;;;22.50;3.33;;;;;;;;;;5111781;27;20126;-81
2022/01/31 09:39:26;;;;;;;25.40;3.40;;;;;;;;;;5092271;28;20056;-81
2022/01/31 09:41:56;;;;;;;20.42;3.63;;;;;;;;;;5093461;28;20063;-80
2022/01/31 09:44:41;;;;;;;17.50;2.80;;;;;;;;;;5110797;27;20088;-82
2022/01/31 09:47:23;;;;;;;28.27;4.75;;;;;;;;;;5108995;27;20117;-81
2022/01/31 09:49:50;;;;;;;27.60;3.90;;;;;;;;;;5110284;27;20117;-81
2022/01/31 09:52:17;;;;;;;31.02;4.90;;;;;;;;;;5093672;28;20050;-80
2022/01/31 09:54:48;;;;;;;33.50;4.78;;;;;;;;;;5097772;27;20048;-81
2022/01/31 09:57:15;;;;;;;19.90;4.10;;;;;;;;;;5092429;28;20118;-81
2022/01/31 09:59:41;;;;;;;29.15;3.75;;;;;;;;;;5088135;28;20102;-81
2022/01/31 10:02:09;;;;;;;33.42;4.47;;;;;;;;;;5089545;27;20051;-81
2022/01/31 10:04:41;;;;;;;41.45;4.47;;;;;;;;;;5100084;27;20052;-81
2022/01/31 10:07:08;;;;;;;28.70;4.60;;;;;;;;;;5108227;27;20044;-81
2022/01/31 10:09:35;;;;;;;26.05;4.75;;;;;;;;;;5096505;27;20056;-81
2022/01/31 10:12:09;;;;;;;34.97;4.68;;;;;;;;;;5093001;27;20090;-81
2022/01/31 10:17:24;;;;;;;35.83;4.30;;;;;;;;;;5111962;27;20051;-80
2022/01/31 10:20:05;;;;;;;35.88;4.18;;;;;;;;;;5085534;27;20094;-80
2022/01/31 10:22:33;;;;;;;28.10;3.88;;;;;;;;;;5112529;27;20442;-81
2022/01/31 10:25:02;;;;;;;41.92;4.75;;;;;;;;;;5111390;27;20105;-82
2022/01/31 10:27:31;;;;;;;33.05;4.18;;;;;;;;;;5086550;28;20571;-80
2022/01/31 10:30:25;;;;;;;30.67;4.32;;;;;;;;;;5103985;28;20074;-80
2022/01/31 10:32:53;;;;;;;23.90;3.47;;;;;;;;;;5117401;27;20701;-81
2022/01/31 10:35:22;;;;;;;23.00;3.65;;;;;;;;;;5103503;27;20063;-82
2022/01/31 10:37:49;;;;;;;26.48;4.22;;;;;;;;;;5112601;27;20089;-80
2022/01/31 10:56:50;;;;;;;17.30;3.15;;;;;;;;;;5116015;27;20588;-81
2022/01/31 10:59:18;;;;;;;33.47;4.05;;;;;;;;;;5114056;27;20534;-82
2022/01/31 11:01:48;;;;;;;25.10;3.45;;;;;;;;;;5095006;28;20940;-81
2022/01/31 11:04:32;;;;;;;35.20;4.07;;;;;;;;;;5109928;27;20062;-76
2022/01/31 11:07:00;;;;;;;29.58;3.88;;;;;;;;;;5116724;27;20547;-76
2022/01/31 11:09:28;;;;;;;20.35;2.63;;;;;;;;;;5110515;27;20104;-76
2022/01/31 11:11:55;;;;;;;24.13;3.00;;;;;;;;;;5088397;28;20392;-77
2022/01/31 11:14:22;;;;;;;27.23;3.95;;;;;;;;;;5095358;27;20121;-77
2022/01/31 11:16:51;;;;;;;21.98;4.70;;;;;;;;;;5103835;27;20067;-77
2022/01/31 11:19:28;;;;;;;28.10;3.47;;;;;;;;;;5084229;27;20154;-76
2022/01/31 11:21:59;;;;;;;36.47;6.13;;;;;;;;;;5091489;28;20047;-76
2022/01/31 11:24:31;;;;;;;;;;;;;;;;;;5087960;27;20105;-76
2022/01/31 11:27:07;;;;;;;25.92;3.95;;;;;;;;;;5108097;27;45534;-76
2022/01/31 11:29:35;;;;;;;32.75;4.32;;;;;;;;;;5082658;27;20056;-76
2022/01/31 11:32:02;;;;;;;31.30;4.28;;;;;;;;;;5090303;28;20105;-76
2022/01/31 11:34:29;;;;;;;42.38;4.13;;;;;;;;;;5090221;27;20109;-76
2022/01/31 11:36:55;;;;;;;22.83;4.00;;;;;;;;;;5104608;27;20535;-76
2022/01/31 11:39:22;;;;;;;28.73;3.63;;;;;;;;;;5107500;27;20060;-76
2022/01/31 11:41:53;;;;;;;28.17;4.47;;;;;;;;;;5108860;27;20052;-76
2022/01/31 11:44:26;;;;;;;32.67;4.38;;;;;;;;;;5104841;27;20102;-76
2022/01/31 11:46:55;;;;;;;25.50;3.60;;;;;;;;;;5114913;27;20048;-76
2022/01/31 11:49:22;;;;;;;31.42;3.95;;;;;;;;;;5091388;28;20055;-76
2022/01/31 11:51:49;;;;;;;27.00;3.83;;;;;;;;;;5109834;27;20060;-77
2022/01/31 11:54:22;;;;;;;20.90;4.13;;;;;;;;;;5106723;27;20098;-77
2022/01/31 11:56:50;;;;;;;27.02;3.63;;;;;;;;;;5092755;27;20234;-76
2022/01/31 11:59:19;;;;;;;22.38;4.03;;;;;;;;;;5092094;28;20051;-77
2022/01/31 12:01:45;;;;;;;21.95;3.47;;;;;;;;;;5096823;27;20097;-77
2022/01/31 12:04:13;;;;;;;32.72;4.75;;;;;;;;;;5091601;28;20044;-76
2022/01/31 12:06:40;;;;;;;28.05;4.22;;;;;;;;;;5090326;27;20557;-76
2022/01/31 12:09:10;;;;;;;27.40;4.40;;;;;;;;;;5109250;27;20477;-77
2022/01/31 12:11:58;;;;;;;35.25;4.07;;;;;;;;;;5091309;28;20105;-77
2022/01/31 12:14:28;;;;;;;26.15;3.53;;;;;;;;;;5104765;27;20072;-77
2022/01/31 12:17:31;;;;;;;28.65;4.55;;;;;;;;;;5107009;27;20048;-77
2022/01/31 12:22:10;;;;;;;30.60;4.78;;;;;;;;;;5109867;27;20663;-77
2022/01/31 12:24:40;;;;;;;33.05;5.47;;;;;;;;;;5109878;27;20502;-77
2022/01/31 12:27:15;;;;;;;45.05;5.95;;;;;;;;;;5092030;27;20672;-77
2022/01/31 12:29:42;;;;;;;37.67;5.88;;;;;;;;;;5089829;28;20048;-77
2022/01/31 12:32:11;;;;;;;35.10;5.25;;;;;;;;;;5091429;27;20062;-77
2022/01/31 12:34:52;;;;;;;31.83;5.07;;;;;;;;;;5093467;27;20502;-75
2022/01/31 12:37:31;;;;;;;26.20;4.63;;;;;;;;;;5107382;27;20160;-75
2022/01/31 12:40:03;;;;;;;39.95;5.03;;;;;;;;;;5107941;27;20101;-76
2022/01/31 12:45:12;;;;;;;37.28;5.65;;;;;;;;;;5108915;27;21633;-76
2022/01/31 12:47:59;;;;;;;26.77;4.60;;;;;;;;;;5107742;27;20059;-76
2022/01/31 12:50:26;;;;;;;33.75;4.75;;;;;;;;;;5082510;28;20056;-76
2022/01/31 12:52:53;;;;;;;39.00;5.32;;;;;;;;;;5087204;28;20113;-76
2022/01/31 12:55:21;;;;;;;23.70;4.15;;;;;;;;;;5085170;27;20059;-76
2022/01/31 12:57:49;;;;;;;32.42;4.93;;;;;;;;;;5085042;28;20052;-76
2022/01/31 13:00:15;;;;;;;37.97;5.05;;;;;;;;;;5106998;27;20082;-76
2022/01/31 13:02:48;;;;;;;37.53;5.50;;;;;;;;;;5108336;27;20056;-76
2022/01/31 13:05:15;;;;;;;44.95;5.22;;;;;;;;;;5086426;27;20550;-76
2022/01/31 13:07:41;;;;;;;25.85;5.30;;;;;;;;;;5103485;27;20084;-76
2022/01/31 13:10:09;;;;;;;30.50;3.90;;;;;;;;;;5106467;27;20172;-77
2022/01/31 13:12:36;;;;;;;34.15;4.55;;;;;;;;;;5106689;27;20105;-77
2022/01/31 13:15:04;;;;;;;29.73;4.50;;;;;;;;;;5106083;27;20052;-77
2022/01/31 13:17:30;;;;;;;28.00;4.57;;;;;;;;;;5087890;28;20044;-77
2022/01/31 13:19:58;;;;;;;28.23;5.20;;;;;;;;;;5087051;28;20056;-77
2022/01/31 13:22:32;;;;;;;34.10;5.30;;;;;;;;;;5087778;28;20051;-76
2022/01/31 13:25:00;;;;;;;31.45;4.55;;;;;;;;;;5088647;28;20060;-76
2022/01/31 13:27:42;;;;;;;33.08;5.18;;;;;;;;;;5101811;27;20059;-76
2022/01/31 13:30:11;;;;;;;36.03;4.47;;;;;;;;;;5088743;28;20088;-77
2022/01/31 13:32:38;;;;;;;39.90;4.95;;;;;;;;;;5106394;27;20056;-76
2022/01/31 13:35:12;;;;;;;33.42;5.22;;;;;;;;;;5088948;27;20143;-76
2022/01/31 13:37:50;;;;;;;27.35;4.70;;;;;;;;;;5082602;28;20128;-76
2022/01/31 13:40:30;;;;;;;36.00;5.50;;;;;;;;;;5087812;27;20059;-76
2022/01/31 13:43:01;;;;;;;43.17;5.47;;;;;;;;;;5103867;27;20052;-76
2022/01/31 13:45:32;;;;;;;34.75;4.88;;;;;;;;;;5086915;28;20052;-76
2022/01/31 13:48:07;;;;;;;28.58;4.30;;;;;;;;;;5089718;28;20960;-76
2022/01/31 13:50:42;;;;;;;37.13;4.13;;;;;;;;;;5102936;27;20801;-76
2022/01/31 13:53:09;;;;;;;38.17;5.72;;;;;;;;;;5108397;27;20047;-76
2022/01/31 13:55:40;;;;;;;34.33;4.18;;;;;;;;;;5099724;27;20063;-76
2022/01/31 13:58:06;;;;;;;39.40;4.95;;;;;;;;;;5086853;27;20097;-76
2022/01/31 14:00:34;;;;;;;31.63;4.57;;;;;;;;;;5086057;28;20564;-77
2022/01/31 14:03:04;;;;;;;36.35;4.78;;;;;;;;;;5103797;27;20047;-76
2022/01/31 14:05:31;;;;;;;33.08;4.65;;;;;;;;;;5088444;27;20044;-76
2022/01/31 14:07:59;;;;;;;36.28;5.63;;;;;;;;;;5101858;27;20972;-77
2022/01/31 14:10:27;;;;;;;32.38;4.53;;;;;;;;;;5086684;27;20059;-76
2022/01/31 14:13:03;;;;;;;32.85;4.97;;;;;;;;;;5087833;27;20043;-76
2022/01/31 14:15:37;;;;;;;40.33;5.95;;;;;;;;;;5113317;27;21472;-76
2022/01/31 14:18:03;;;;;;;29.23;4.60;;;;;;;;;;5106813;27;20048;-76
2022/01/31 14:20:31;;;;;;;36.17;5.07;;;;;;;;;;5109450;27;20141;-76
2022/01/31 14:22:58;;;;;;;32.00;5.40;;;;;;;;;;5086202;28;20155;-76
2022/01/31 14:25:25;;;;;;;26.60;4.28;;;;;;;;;;5110329;27;20133;-76
2022/01/31 14:27:52;;;;;;;39.33;5.78;;;;;;;;;;5087499;28;20107;-76
2022/01/31 14:30:20;;;;;;;23.33;4.07;;;;;;;;;;5090795;27;20481;-76
2022/01/31 14:33:00;;;;;;;33.05;4.70;;;;;;;;;;5093913;27;20048;-76
2022/01/31 14:35:28;;;;;;;27.97;4.73;;;;;;;;;;5085260;27;20207;-76
2022/01/31 14:37:58;;;;;;;44.33;4.95;;;;;;;;;;5110606;27;20051;-76
2022/01/31 14:41:10;;;;;;;32.60;5.72;;;;;;;;;;5115229;27;20143;-76
2022/01/31 14:49:09;;;;;;;29.58;3.67;;;;;;;;;;5105204;27;20514;-76
2022/01/31 14:51:37;;;;;;;27.10;3.75;;;;;;;;;;5101306;27;20506;-76
2022/01/31 14:54:07;;;;;;;35.03;5.00;;;;;;;;;;5109833;27;20052;-76
2022/01/31 14:56:35;;;;;;;22.15;3.78;;;;;;;;;;5109668;27;20095;-76
2022/01/31 14:59:21;;;;;;;24.35;3.15;;;;;;;;;;5095840;28;20506;-76
2022/01/31 15:01:47;;;;;;;26.83;3.30;;;;;;;;;;5092711;27;20074;-76
2022/01/31 15:04:34;;;;;;;25.20;3.30;;;;;;;;;;5111415;27;20139;-76
2022/01/31 15:07:00;;;;;;;28.17;3.60;;;;;;;;;;5093465;27;20135;-76
2022/01/31 15:09:32;;;;;;;30.30;3.75;;;;;;;;;;5093345;27;20532;-76
2022/01/31 15:11:58;;;;;;;26.77;3.85;;;;;;;;;;5092762;27;20052;-76
2022/01/31 15:14:26;;;;;;;24.90;3.45;;;;;;;;;;5088167;28;20122;-76